createdAt,value
2019-05-06T00:01:28.252Z,12.13
2019-05-06T00:04:00.872Z,7.37
2019-05-06T00:06:29.799Z,12.70
2019-05-06T00:08:59.820Z,10.43
2019-05-06T00:11:29.683Z,8.30
2019-05-06T00:14:05.747Z,8.37
2019-05-06T00:16:36.305Z,4.83
2019-05-06T00:19:06.416Z,8.93
2019-05-06T00:21:37.375Z,7.83
2019-05-06T00:24:09.199Z,14.60
2019-05-06T00:26:55.211Z,8.63
2019-05-06T00:29:28.267Z,8.67
2019-05-06T00:31:59.265Z,9.87
2019-05-06T00:34:29.496Z,8.70
2019-05-06T00:36:59.362Z,12.93
2019-05-06T00:40:00.317Z,11.60
2019-05-06T00:42:34.972Z,8.57
2019-05-06T00:45:05.953Z,7.20
2019-05-06T00:47:35.854Z,11.33
2019-05-06T00:50:06.589Z,9.60
2019-05-06T00:52:37.330Z,13.80
2019-05-06T00:55:08.412Z,9.47
2019-05-06T00:57:44.618Z,7.87
2019-05-06T01:00:24.410Z,8.03
2019-05-06T01:02:55.324Z,14.47
2019-05-06T01:05:25.795Z,10.87
2019-05-06T01:07:55.709Z,9.40
2019-05-06T01:10:26.263Z,9.67
2019-05-06T01:13:10.564Z,6.47
2019-05-06T01:15:40.375Z,11.70
2019-05-06T01:18:10.164Z,8.83
2019-05-06T01:20:39.908Z,8.70
2019-05-06T01:23:09.610Z,7.17
2019-05-06T01:25:39.606Z,12.40
2019-05-06T01:28:09.312Z,9.57
2019-05-06T01:30:39.381Z,12.47
2019-05-06T01:33:09.348Z,14.63
2019-05-06T01:35:41.388Z,9.03
2019-05-06T01:38:28.946Z,7.93
2019-05-06T01:41:24.398Z,11.00
2019-05-06T01:43:54.733Z,13.03
2019-05-06T01:46:24.976Z,10.80
2019-05-06T01:48:57.087Z,11.93
2019-05-06T01:51:26.794Z,10.13
2019-05-06T01:53:56.568Z,11.00
2019-05-06T01:56:26.502Z,10.63
2019-05-06T01:58:56.050Z,16.40
2019-05-06T02:01:25.724Z,6.47
2019-05-06T02:03:55.611Z,15.17
2019-05-06T02:06:25.366Z,9.77
2019-05-06T02:08:55.206Z,7.83
2019-05-06T02:11:25.406Z,10.23
2019-05-06T02:13:54.985Z,12.13
2019-05-06T02:16:24.695Z,11.77
2019-05-06T02:18:54.659Z,14.77
2019-05-06T02:21:44.365Z,10.60
2019-05-06T02:24:19.757Z,9.83
2019-05-06T02:26:50.686Z,11.53
2019-05-06T02:29:24.462Z,16.67
2019-05-06T02:32:24.872Z,7.93
2019-05-06T02:35:15.632Z,11.73
2019-05-06T02:37:46.448Z,10.07
2019-05-06T02:40:25.979Z,12.27
2019-05-06T02:42:56.100Z,11.37
2019-05-06T02:45:27.242Z,8.97
2019-05-06T02:48:07.155Z,11.60
2019-05-06T02:50:54.434Z,11.30
2019-05-06T02:53:26.551Z,10.07
2019-05-06T02:56:13.343Z,6.83
2019-05-06T02:58:43.653Z,11.23
2019-05-06T03:01:23.329Z,6.53
2019-05-06T03:03:53.517Z,7.93
2019-05-06T03:06:24.013Z,6.73
2019-05-06T03:08:54.519Z,13.20
2019-05-06T03:11:24.461Z,8.33
2019-05-06T03:13:54.348Z,10.27
2019-05-06T03:16:24.003Z,8.80
2019-05-06T03:18:54.737Z,9.80
2019-05-06T03:21:54.979Z,8.90
2019-05-06T03:24:34.281Z,9.67
2019-05-06T03:27:04.541Z,11.47
2019-05-06T03:29:35.256Z,9.43
2019-05-06T03:32:07.522Z,8.07
2019-05-06T03:34:57.696Z,14.07
2019-05-06T03:37:08.758Z,18.27
2019-05-06T03:39:38.775Z,8.10
2019-05-06T03:42:09.103Z,9.40
2019-05-06T03:44:43.618Z,10.07
2019-05-06T03:47:46.785Z,11.10
2019-05-06T03:50:17.586Z,11.70
2019-05-06T03:52:47.397Z,10.07
2019-05-06T03:55:17.189Z,12.60
2019-05-06T03:57:49.569Z,12.77
2019-05-06T04:00:19.375Z,8.97
2019-05-06T04:02:48.968Z,10.13
2019-05-06T04:05:19.404Z,14.67
2019-05-06T04:07:53.086Z,6.77
2019-05-06T04:10:23.216Z,10.13
2019-05-06T04:12:53.914Z,9.03
2019-05-06T04:15:26.783Z,10.43
2019-05-06T04:18:04.928Z,9.70
2019-05-06T04:21:03.511Z,13.30
2019-05-06T04:23:43.671Z,11.87
2019-05-06T04:26:32.921Z,13.73
2019-05-06T04:29:04.514Z,7.07
2019-05-06T04:31:34.999Z,8.13
2019-05-06T04:34:12.871Z,11.27
2019-05-06T04:36:36.705Z,12.03
2019-05-06T04:39:08.365Z,13.40
2019-05-06T04:41:38.475Z,7.30
2019-05-06T04:44:08.019Z,12.27
2019-05-06T04:46:39.594Z,7.67
2019-05-06T04:49:14.032Z,6.57
2019-05-06T04:51:43.068Z,8.97
2019-05-06T04:54:13.508Z,11.83
2019-05-06T04:56:44.105Z,7.07
2019-05-06T04:59:14.377Z,11.43
2019-05-06T05:01:45.559Z,15.33
2019-05-06T05:04:28.188Z,10.93
2019-05-06T05:06:48.556Z,6.93
2019-05-06T05:09:18.204Z,7.20
2019-05-06T05:11:56.075Z,10.97
2019-05-06T05:14:47.721Z,7.57
2019-05-06T05:17:38.719Z,11.87
2019-05-06T05:20:08.823Z,9.40
2019-05-06T05:22:42.203Z,6.67
2019-05-06T05:25:12.183Z,10.67
2019-05-06T05:27:43.409Z,6.17
2019-05-06T05:30:13.891Z,10.03
2019-05-06T05:32:43.577Z,10.23
2019-05-06T05:35:13.863Z,11.90
2019-05-06T05:37:46.347Z,10.87
2019-05-06T05:40:17.345Z,9.67
2019-05-06T05:43:02.965Z,11.70
2019-05-06T05:45:33.171Z,10.53
2019-05-06T05:48:06.106Z,13.43
2019-05-06T05:50:39.061Z,7.33
2019-05-06T05:53:09.044Z,10.90
2019-05-06T05:55:38.592Z,9.10
2019-05-06T05:58:08.777Z,9.03
2019-05-06T06:00:38.525Z,11.40
2019-05-06T06:03:09.007Z,14.73
2019-05-06T06:05:42.758Z,10.30
2019-05-06T06:08:13.255Z,14.30
2019-05-06T06:10:53.973Z,13.90
2019-05-06T06:13:26.398Z,10.13
2019-05-06T06:16:13.945Z,9.00
2019-05-06T06:19:04.962Z,11.40
2019-05-06T06:21:38.526Z,9.73
2019-05-06T06:24:22.573Z,24.17
2019-05-06T06:26:52.603Z,12.33
2019-05-06T06:29:28.530Z,11.73
2019-05-06T06:32:27.424Z,15.73
2019-05-06T06:35:14.651Z,7.47
2019-05-06T06:38:03.538Z,8.00
2019-05-06T06:40:34.551Z,9.07
2019-05-06T06:43:08.761Z,15.57
2019-05-06T06:45:38.724Z,12.47
2019-05-06T06:48:08.261Z,11.67
2019-05-06T06:50:38.076Z,11.23
2019-05-06T06:53:07.819Z,8.40
2019-05-06T06:55:38.561Z,11.40
2019-05-06T06:58:27.663Z,13.77
2019-05-06T07:01:18.580Z,11.37
2019-05-06T07:04:17.525Z,14.20
2019-05-06T07:06:50.112Z,12.83
2019-05-06T07:09:23.171Z,10.63
2019-05-06T07:11:54.474Z,8.80
2019-05-06T07:14:24.245Z,13.43
2019-05-06T07:16:55.271Z,10.50
2019-05-06T07:19:32.764Z,15.60
2019-05-06T07:22:02.947Z,10.13
2019-05-06T07:24:33.180Z,8.77
2019-05-06T07:27:08.874Z,5.87
2019-05-06T07:29:38.732Z,10.17
2019-05-06T07:32:08.298Z,8.07
2019-05-06T07:34:37.906Z,7.67
2019-05-06T07:37:09.300Z,3.97
2019-05-06T07:39:39.270Z,5.67
2019-05-06T07:42:15.712Z,8.43
2019-05-06T07:45:18.049Z,8.93
2019-05-06T07:48:03.365Z,7.53
2019-05-06T07:50:33.204Z,8.93
2019-05-06T07:53:15.295Z,45.93
2019-05-06T07:55:46.966Z,8.23
2019-05-06T07:58:22.643Z,8.93
2019-05-06T08:01:02.443Z,8.03
2019-05-06T08:03:43.017Z,7.40
2019-05-06T08:06:49.332Z,7.27
2019-05-06T08:09:19.393Z,31.07
2019-05-06T08:11:48.927Z,17.87
2019-05-06T08:14:19.066Z,5.03
2019-05-06T08:17:02.244Z,3.77
2019-05-06T08:19:33.585Z,5.53
2019-05-06T08:22:07.116Z,7.03
2019-05-06T08:24:37.308Z,4.43
2019-05-06T08:27:07.109Z,4.93
2019-05-06T08:29:37.600Z,11.20
2019-05-06T08:32:07.862Z,6.93
2019-05-06T08:34:38.625Z,8.77
2019-05-06T08:37:29.335Z,5.97
2019-05-06T08:39:59.341Z,5.53
2019-05-06T08:42:29.102Z,7.67
2019-05-06T08:44:58.933Z,7.03
2019-05-06T08:47:28.994Z,4.20
2019-05-06T08:50:23.060Z,8.20
2019-05-06T08:53:14.795Z,6.00
2019-05-06T08:55:47.371Z,9.03
2019-05-06T08:58:18.642Z,7.20
2019-05-06T09:00:57.226Z,5.93
2019-05-06T09:03:27.062Z,7.23
2019-05-06T09:06:03.179Z,9.20
2019-05-06T09:08:34.818Z,9.50
2019-05-06T09:11:06.356Z,8.97
2019-05-06T09:13:38.067Z,9.17
2019-05-06T09:16:08.576Z,6.33
2019-05-06T09:18:39.548Z,7.27
2019-05-06T09:21:12.295Z,8.27
2019-05-06T09:23:44.681Z,10.53
2019-05-06T09:26:18.087Z,14.23
2019-05-06T09:28:54.009Z,7.50
2019-05-06T09:31:34.573Z,12.40
2019-05-06T09:34:13.059Z,10.00
2019-05-06T09:36:51.368Z,7.90
2019-05-06T09:39:17.615Z,10.27
2019-05-06T09:41:48.793Z,8.23
2019-05-06T09:44:26.305Z,7.10
2019-05-06T09:46:57.655Z,9.30
2019-05-06T09:49:32.867Z,15.33
2019-05-06T09:52:03.721Z,6.57
2019-05-06T09:54:49.682Z,5.77
2019-05-06T09:57:24.124Z,6.03
2019-05-06T09:59:55.963Z,12.47
2019-05-06T10:02:25.950Z,11.23
2019-05-06T10:04:57.686Z,4.67
2019-05-06T10:07:27.916Z,9.60
2019-05-06T10:09:57.499Z,6.60
2019-05-06T10:12:27.820Z,6.47
2019-05-06T10:14:57.601Z,7.57
2019-05-06T10:17:27.540Z,4.93
2019-05-06T10:19:57.509Z,7.03
2019-05-06T10:22:27.154Z,3.97
2019-05-06T10:24:56.937Z,8.83
2019-05-06T10:27:27.407Z,12.13
2019-05-06T10:30:03.277Z,9.20
2019-05-06T10:32:55.520Z,7.83
2019-05-06T10:35:29.163Z,4.20
2019-05-06T10:38:39.598Z,4.57
2019-05-06T10:41:13.437Z,5.40
2019-05-06T10:44:05.020Z,3.93
2019-05-06T10:46:42.934Z,3.60
2019-05-06T10:49:14.015Z,18.97
2019-05-06T10:52:03.097Z,4.40
2019-05-06T10:54:33.912Z,2.83
2019-05-06T10:57:22.639Z,4.63
2019-05-06T10:59:53.343Z,3.60
2019-05-06T11:02:42.859Z,2.97
2019-05-06T11:05:13.185Z,2.30
2019-05-06T11:07:43.180Z,3.13
2019-05-06T11:10:24.353Z,3.00
2019-05-06T11:12:44.620Z,2.90
2019-05-06T11:15:14.862Z,4.73
2019-05-06T11:17:45.485Z,3.50
2019-05-06T11:20:15.539Z,7.83
2019-05-06T11:22:46.809Z,5.90
2019-05-06T11:25:16.811Z,3.60
2019-05-06T11:27:46.590Z,4.87
2019-05-06T11:30:27.764Z,6.83
2019-05-06T11:33:05.479Z,6.60
2019-05-06T11:35:54.230Z,3.03
2019-05-06T11:38:24.012Z,3.13
2019-05-06T11:40:54.421Z,2.47
2019-05-06T11:43:25.266Z,4.73
2019-05-06T11:45:55.377Z,5.87
2019-05-06T11:48:27.279Z,3.87
2019-05-06T11:51:01.782Z,6.03
2019-05-06T11:53:32.566Z,4.27
2019-05-06T11:56:02.377Z,3.17
2019-05-06T11:58:49.146Z,3.27
2019-05-06T12:01:29.377Z,7.20
2019-05-06T12:03:59.479Z,3.47
2019-05-06T12:06:33.176Z,6.57
2019-05-06T12:09:06.485Z,3.87
2019-05-06T12:11:34.745Z,5.07
2019-05-06T12:14:04.663Z,2.43
2019-05-06T12:16:34.597Z,3.63
2019-05-06T12:19:04.532Z,4.67
2019-05-06T12:21:34.736Z,5.20
2019-05-06T12:24:05.383Z,2.63
2019-05-06T12:26:35.602Z,4.80
2019-05-06T12:29:05.719Z,3.57
2019-05-06T12:31:35.756Z,3.43
2019-05-06T12:34:07.214Z,3.83
2019-05-06T12:36:37.051Z,4.67
2019-05-06T12:39:37.144Z,6.17
2019-05-06T12:42:14.372Z,4.90
2019-05-06T12:45:03.875Z,3.43
2019-05-06T12:47:55.717Z,3.73
2019-05-06T12:50:26.025Z,5.37
2019-05-06T12:52:57.869Z,4.03
2019-05-06T12:55:29.028Z,6.20
2019-05-06T12:58:07.981Z,3.87
2019-05-06T13:00:37.837Z,2.97
2019-05-06T13:03:07.817Z,4.63
2019-05-06T13:05:39.569Z,4.90
2019-05-06T13:08:18.818Z,7.37
2019-05-06T13:10:42.212Z,3.27
2019-05-06T13:13:23.523Z,1.90
2019-05-06T13:15:57.959Z,0.90
2019-05-06T13:18:32.787Z,0.60
2019-05-06T13:21:06.582Z,1.57
2019-05-06T13:23:45.826Z,5.23
2019-05-06T13:26:16.721Z,2.07
2019-05-06T13:28:54.587Z,5.50
2019-05-06T13:31:28.933Z,2.83
2019-05-06T13:34:07.521Z,1.57
2019-05-06T13:36:38.806Z,1.67
2019-05-06T13:39:14.969Z,2.07
2019-05-06T13:41:49.220Z,4.60
2019-05-06T13:44:22.836Z,3.23
2019-05-06T13:47:02.790Z,4.13
2019-05-06T13:49:46.180Z,3.27
2019-05-06T13:52:22.973Z,2.37
2019-05-06T13:54:54.164Z,4.23
2019-05-06T13:57:29.370Z,5.60
2019-05-06T14:00:03.276Z,5.07
2019-05-06T14:02:57.032Z,2.87
2019-05-06T14:05:33.012Z,4.20
2019-05-06T14:08:05.433Z,4.17
2019-05-06T14:10:37.884Z,5.47
2019-05-06T14:13:10.296Z,4.67
2019-05-06T14:15:42.820Z,4.73
2019-05-06T14:18:13.622Z,6.27
2019-05-06T14:20:43.352Z,8.23
2019-05-06T14:23:14.759Z,4.13
2019-05-06T14:26:04.893Z,3.70
2019-05-06T14:28:57.564Z,8.83
2019-05-06T14:31:39.486Z,1.77
2019-05-06T14:34:09.291Z,3.93
2019-05-06T14:36:39.491Z,2.27
2019-05-06T14:39:24.528Z,2.63
2019-05-06T14:41:56.380Z,3.10
2019-05-06T14:44:33.825Z,1.93
2019-05-06T14:47:09.433Z,3.97
2019-05-06T14:49:40.020Z,1.90
2019-05-06T14:52:12.887Z,2.00
2019-05-06T14:54:54.242Z,2.97
2019-05-06T14:57:25.059Z,1.00
2019-05-06T14:59:56.792Z,0.93
2019-05-06T15:02:29.032Z,0.90
2019-05-06T15:04:59.223Z,2.43
2019-05-06T15:07:33.065Z,2.20
2019-05-06T15:10:19.254Z,1.20
2019-05-06T15:12:34.638Z,2.83
2019-05-06T15:15:05.503Z,3.10
2019-05-06T15:17:36.879Z,2.50
2019-05-06T15:20:07.318Z,2.23
2019-05-06T15:22:37.078Z,1.53
2019-05-06T15:25:07.319Z,1.40
2019-05-06T15:27:37.352Z,1.60
2019-05-06T15:30:12.422Z,1.40
2019-05-06T15:32:42.853Z,1.47
2019-05-06T15:35:37.616Z,1.37
2019-05-06T15:38:15.705Z,1.67
2019-05-06T15:40:46.359Z,1.83
2019-05-06T15:43:19.130Z,1.30
2019-05-06T15:45:52.641Z,1.07
2019-05-06T15:48:22.820Z,1.53
2019-05-06T15:50:54.517Z,2.43
2019-05-06T15:53:24.396Z,1.37
2019-05-06T15:55:54.820Z,3.53
2019-05-06T15:58:24.933Z,3.63
2019-05-06T16:00:55.461Z,2.57
2019-05-06T16:03:25.030Z,1.80
2019-05-06T16:05:55.337Z,1.80
2019-05-06T16:08:26.051Z,3.10
2019-05-06T16:10:58.836Z,2.47
2019-05-06T16:13:28.578Z,3.03
2019-05-06T16:15:58.295Z,1.30
2019-05-06T16:18:45.103Z,2.70
2019-05-06T16:21:17.257Z,1.50
2019-05-06T16:23:58.952Z,1.13
2019-05-06T16:26:32.107Z,1.80
2019-05-06T16:29:02.943Z,1.43
2019-05-06T16:31:34.260Z,0.90
2019-05-06T16:34:04.632Z,3.10
2019-05-06T16:36:35.932Z,2.67
2019-05-06T16:39:08.073Z,1.80
2019-05-06T16:41:37.937Z,2.23
2019-05-06T16:44:12.693Z,2.43
2019-05-06T16:46:42.960Z,6.80
2019-05-06T16:49:14.189Z,2.70
2019-05-06T16:51:45.767Z,3.70
2019-05-06T16:54:22.564Z,3.03
2019-05-06T16:57:02.320Z,2.73
2019-05-06T16:59:33.458Z,1.67
2019-05-06T17:02:14.033Z,1.50
2019-05-06T17:05:08.613Z,2.33
2019-05-06T17:07:42.242Z,4.30
2019-05-06T17:10:13.014Z,2.17
2019-05-06T17:12:43.926Z,0.70
2019-05-06T17:15:14.697Z,1.90
2019-05-06T17:17:47.180Z,4.23
2019-05-06T17:20:19.021Z,1.23
2019-05-06T17:22:53.191Z,1.87
2019-05-06T17:25:22.826Z,4.93
2019-05-06T17:27:54.377Z,4.13
2019-05-06T17:30:53.500Z,3.17
2019-05-06T17:33:43.115Z,2.57
2019-05-06T17:36:16.335Z,2.37
2019-05-06T17:38:58.559Z,5.70
2019-05-06T17:41:46.122Z,3.43
2019-05-06T17:44:13.454Z,1.60
2019-05-06T17:47:03.805Z,1.80
2019-05-06T17:49:39.628Z,2.33
2019-05-06T17:52:33.465Z,3.77
2019-05-06T17:55:06.095Z,2.33
2019-05-06T17:57:42.106Z,5.07
2019-05-06T18:00:13.223Z,8.97
2019-05-06T18:02:47.444Z,5.67
2019-05-06T18:05:19.053Z,3.13
2019-05-06T18:07:50.435Z,2.47
2019-05-06T18:10:22.140Z,1.67
2019-05-06T18:12:53.183Z,2.70
2019-05-06T18:15:32.192Z,2.53
2019-05-06T18:18:02.870Z,3.83
2019-05-06T18:20:33.943Z,4.40
2019-05-06T18:23:05.905Z,4.73
2019-05-06T18:25:36.318Z,2.20
2019-05-06T18:28:06.209Z,5.90
2019-05-06T18:30:37.239Z,8.57
2019-05-06T18:33:19.454Z,6.27
2019-05-06T18:35:55.138Z,7.20
2019-05-06T18:38:34.823Z,2.60
2019-05-06T18:41:08.590Z,3.23
2019-05-06T18:43:54.224Z,5.00
2019-05-06T18:46:32.770Z,5.70
2019-05-06T18:49:22.453Z,1.57
2019-05-06T18:52:09.917Z,3.93
2019-05-06T18:55:02.771Z,4.07
2019-05-06T19:02:05.175Z,3.33
2019-05-06T19:04:59.177Z,4.10
2019-05-06T19:07:52.734Z,3.30
2019-05-06T19:10:29.312Z,3.77
2019-05-06T19:13:08.722Z,3.27
2019-05-06T19:15:42.589Z,4.07
2019-05-06T19:18:13.320Z,2.80
2019-05-06T19:20:44.677Z,2.57
2019-05-06T19:23:14.901Z,1.77
2019-05-06T19:25:45.558Z,2.63
2019-05-06T19:28:18.420Z,2.87
2019-05-06T19:30:48.128Z,6.67
2019-05-06T19:33:17.754Z,3.20
2019-05-06T19:35:52.277Z,8.20
2019-05-06T19:38:25.037Z,3.57
2019-05-06T19:40:55.108Z,8.00
2019-05-06T19:43:29.412Z,3.33
2019-05-06T19:46:02.464Z,2.57
2019-05-06T19:48:33.352Z,5.23
2019-05-06T19:51:03.863Z,4.13
2019-05-06T19:53:36.189Z,1.43
2019-05-06T19:56:07.186Z,3.50
2019-05-06T19:58:38.001Z,2.40
2019-05-06T20:01:09.757Z,4.73
2019-05-06T20:03:41.780Z,4.03
2019-05-06T20:06:34.701Z,1.27
2019-05-06T20:09:24.823Z,1.30
2019-05-06T20:12:02.814Z,2.43
2019-05-06T20:14:33.569Z,2.37
2019-05-06T20:17:04.039Z,4.37
2019-05-06T20:19:34.091Z,3.33
2019-05-06T20:22:04.207Z,2.03
2019-05-06T20:24:34.435Z,11.57
2019-05-06T20:27:09.169Z,3.33
2019-05-06T20:29:39.566Z,2.50
2019-05-06T20:32:09.480Z,1.83
2019-05-06T20:34:39.337Z,3.30
2019-05-06T20:37:12.885Z,3.40
2019-05-06T20:39:46.550Z,3.67
2019-05-06T20:42:16.435Z,5.90
2019-05-06T20:44:47.663Z,3.30
2019-05-06T20:47:18.814Z,2.97
2019-05-06T20:49:49.470Z,3.77
2019-05-06T20:52:24.285Z,1.43
2019-05-06T20:54:55.812Z,2.27
2019-05-06T20:57:26.001Z,2.00
2019-05-06T20:59:56.430Z,1.67
2019-05-06T21:02:27.265Z,2.87
2019-05-06T21:04:57.238Z,3.27
2019-05-06T21:07:27.326Z,8.67
2019-05-06T21:09:58.183Z,1.50
2019-05-06T21:12:30.873Z,2.00
2019-05-06T21:15:02.359Z,1.23
2019-05-06T21:17:32.496Z,6.03
2019-05-06T21:20:08.725Z,4.63
2019-05-06T21:22:39.455Z,3.03
2019-05-06T21:25:12.863Z,2.17
2019-05-06T21:27:42.538Z,3.63
2019-05-06T21:30:15.557Z,3.23
2019-05-06T21:32:45.578Z,2.70
2019-05-06T21:35:15.402Z,3.23
2019-05-06T21:37:52.869Z,3.97
2019-05-06T21:40:22.272Z,2.70
2019-05-06T21:42:59.396Z,3.17
2019-05-06T21:45:29.110Z,2.30
2019-05-06T21:47:58.854Z,2.10
2019-05-06T21:50:28.548Z,1.20
2019-05-06T21:52:58.822Z,1.87
2019-05-06T21:55:28.514Z,6.73
2019-05-06T21:57:58.783Z,3.03
2019-05-06T22:00:56.638Z,3.70
2019-05-06T22:03:27.844Z,4.13
2019-05-06T22:05:58.233Z,1.70
2019-05-06T22:08:32.934Z,1.83
2019-05-06T22:11:06.339Z,1.33
2019-05-06T22:13:35.988Z,2.53
2019-05-06T22:16:05.727Z,1.57
2019-05-06T22:18:45.459Z,1.03
2019-05-06T22:21:25.448Z,2.60
2019-05-06T22:23:58.948Z,2.93
2019-05-06T22:26:28.802Z,10.67
2019-05-06T22:29:01.865Z,3.13
2019-05-06T22:31:33.127Z,1.27
2019-05-06T22:34:03.755Z,1.90
2019-05-06T22:36:34.120Z,1.40
2019-05-06T22:39:06.040Z,0.90
2019-05-06T22:41:36.721Z,1.13
2019-05-06T22:44:13.636Z,2.37
2019-05-06T22:46:42.417Z,1.30
2019-05-06T22:49:15.140Z,1.37
2019-05-06T22:51:45.801Z,1.10
2019-05-06T22:54:15.558Z,1.80
2019-05-06T22:56:46.248Z,1.60
2019-05-06T22:59:16.975Z,1.87
2019-05-06T23:01:56.500Z,1.07
2019-05-06T23:04:28.509Z,2.60
2019-05-06T23:06:58.056Z,1.20
2019-05-06T23:09:27.892Z,1.77
2019-05-06T23:11:57.716Z,3.93
2019-05-06T23:14:31.540Z,5.03
2019-05-06T23:17:02.872Z,2.07
2019-05-06T23:19:32.467Z,1.67
2019-05-06T23:22:05.163Z,2.60
2019-05-06T23:24:35.616Z,2.20
2019-05-06T23:27:08.318Z,2.80
2019-05-06T23:29:39.566Z,2.17
2019-05-06T23:32:13.755Z,1.07
2019-05-06T23:34:43.187Z,0.97
2019-05-06T23:37:23.632Z,1.40
2019-05-06T23:40:33.274Z,1.70
2019-05-06T23:43:42.543Z,2.13
2019-05-06T23:46:48.369Z,0.93
2019-05-06T23:49:54.166Z,1.17
2019-05-06T23:52:59.784Z,1.80
2019-05-06T23:56:05.496Z,1.20
2019-05-06T23:58:35.397Z,2.70
